Blair, Texas
Current Conditions -  °F | °C
As of 6:58 AM on Wednesday 26 Nov 2014 (Local Time) from KDYS Reporting Station
Clear Clear  
Wind Chill: 45°   Ceiling: Unl
Heat Index: 45°   Visibility: 10mi
Dew Point: 20°   Wind: 3mph
Humidity: 37%   Direction: 240°WSW
Pressure: 30.11"   Gusts: NA
Location:  32.3913°N, 100.009°W
Report Text: KDYS 261258Z AUTO 24003KT 10SM CLR 07/M07 A3011 RMK AO2 SLP196 T00701069 $
Loading
Personal Weather Stations






























Interactive Weather Map New forecast layout! Learn more

10-Day Weather Forecast

Advertisements
Track Severe Weather on mobile